Oak Hill, WV

12:32 AM EDT on May 01, 2017 (GMT -0400)
F.I.T. - Oyler Ave. | | Change Station

Elev 1988 ft 37.99 °N, 81.15 °W | Updated 6 seconds ago

Partly Cloudy
Partly Cloudy
70.3 °F
Feels Like 74 °F
N
0.0
Wind Variable Wind from NNE
Gusts 0.0 mph

Today
High -- | Low -- °F
--% Chance of Precip.
Yesterday
High -- | Low -- °F
Precip. -- in
Pressure 29.92 in
Visibility 10.0 miles
Clouds Clear
Heat Index 74 °F
Dew Point 59 °F
Humidity 68%
Rainfall 0.00 in
Snow Depth Not available.
6:28 AM 8:15 PM
Waxing Crescent, 29% visible
METAR KBKW 010351Z AUTO 16008G15KT 10SM CLR 21/13 A3003 RMK AO2 SLP132 T02060128 TSNO
Pressure 29.92 in
Visibility 10.0 miles
Clouds Clear
Heat Index 74 °F
Dew Point 59 °F
Humidity 68%
Rainfall 0.00 in
Snow Depth Not available.
6:28 AM 8:15 PM
Waxing Crescent, 29% visible
METAR KBKW 010351Z AUTO 16008G15KT 10SM CLR 21/13 A3003 RMK AO2 SLP132 T02060128 TSNO

Get Severe Weather Alerts

Thanks for signing up!

Be on the lookout for a verification email in your inbox.

You'll start receiving the daily forecast at 8 AM.

×

10-Day Weather Forecast

Almanac

Astronomy

May. 01, 2017 Rise Set
Actual Time
Civil Twilight
Nautical Twilight
Astronomical Twilight
Moon
Length of Visible Light
Length of Day
Tomorrow will be .
, % of the Moon is Illuminated

Today's Extremes

State Highs State Lows

Community

WunderPhotos

WunderBlog® & News

Nearby

Air Quality

  Air Quality AQ Index Pollutant
Not available.

Snow Depth

Station Depth Elevation

Earthquake Activity

City Distance Mag. Time & Date
Minimum magnitude displayed is 2.5.

Coastal Water Temperatures

Place Temperature

Stations

Nearby Weather Stations

Station Location Temp. Windchill Dew Point Humidity Wind Precip. Elev Updated Type
                   

Watches & Warnings

There are currently no watches in effect.